createdAt,value
2022-12-06T00:00:44.107Z,98.22
2022-12-06T00:01:47.192Z,98.09
2022-12-06T00:02:50.205Z,98.12
2022-12-06T00:03:55.413Z,98.10
2022-12-06T00:04:58.343Z,98.20
2022-12-06T00:06:06.986Z,98.45
2022-12-06T00:07:11.796Z,98.47
2022-12-06T00:08:14.989Z,98.11
2022-12-06T00:09:25.032Z,97.78
2022-12-06T00:10:27.949Z,97.83
2022-12-06T00:11:33.258Z,98.16
2022-12-06T00:12:36.227Z,98.64
2022-12-06T00:13:40.316Z,98.51
2022-12-06T00:14:43.332Z,98.79
2022-12-06T00:15:46.135Z,99.14
2022-12-06T00:16:49.699Z,99.58
2022-12-06T00:17:52.939Z,99.90
2022-12-06T00:18:56.559Z,100.00
2022-12-06T00:19:59.862Z,100.00
2022-12-06T00:21:30.689Z,100.00
2022-12-06T00:22:33.694Z,100.00
2022-12-06T00:23:38.565Z,100.00
2022-12-06T00:24:41.880Z,100.00
2022-12-06T00:25:44.841Z,100.00
2022-12-06T00:26:49.714Z,100.00
2022-12-06T00:27:52.658Z,100.00
2022-12-06T00:28:58.042Z,100.00
2022-12-06T00:30:01.253Z,100.00
2022-12-06T00:31:07.776Z,99.60
2022-12-06T00:32:16.079Z,99.14
2022-12-06T00:33:22.105Z,98.85
2022-12-06T00:34:25.028Z,98.50
2022-12-06T00:35:27.937Z,98.45
2022-12-06T00:36:37.048Z,98.54
2022-12-06T00:37:40.400Z,98.78
2022-12-06T00:38:43.567Z,98.83
2022-12-06T00:39:46.570Z,99.00
2022-12-06T00:40:49.523Z,99.25
2022-12-06T00:41:56.092Z,99.30
2022-12-06T00:42:58.975Z,99.06
2022-12-06T00:44:05.164Z,98.98
2022-12-06T00:45:08.993Z,99.17
2022-12-06T00:46:17.811Z,99.34
2022-12-06T00:47:20.790Z,99.16
2022-12-06T00:48:24.302Z,99.13
2022-12-06T00:49:27.235Z,99.26
2022-12-06T00:50:30.216Z,99.34
2022-12-06T00:51:34.750Z,99.07
2022-12-06T00:52:37.625Z,99.06
2022-12-06T00:53:40.830Z,98.90
2022-12-06T00:54:43.715Z,99.16
2022-12-06T00:55:47.478Z,99.33
2022-12-06T00:56:50.327Z,99.46
2022-12-06T00:57:53.490Z,99.49
2022-12-06T00:58:56.854Z,99.61
2022-12-06T01:00:00.024Z,99.79
2022-12-06T01:01:12.929Z,99.95
2022-12-06T01:02:16.017Z,100.00
2022-12-06T01:03:19.413Z,100.00
2022-12-06T01:04:22.575Z,99.90
2022-12-06T01:05:25.547Z,99.80
2022-12-06T01:06:31.515Z,99.95
2022-12-06T01:07:34.435Z,100.00
2022-12-06T01:08:38.473Z,100.00
2022-12-06T01:09:42.784Z,100.00
2022-12-06T01:10:55.775Z,100.00
2022-12-06T01:11:59.147Z,100.00
2022-12-06T01:13:02.177Z,100.00
2022-12-06T01:14:05.176Z,100.00
2022-12-06T01:15:09.025Z,100.00
2022-12-06T01:16:15.249Z,100.00
2022-12-06T01:17:18.281Z,100.00
2022-12-06T01:18:22.083Z,100.00
2022-12-06T01:19:24.988Z,100.00
2022-12-06T01:20:28.191Z,100.00
2022-12-06T01:21:31.704Z,100.00
2022-12-06T01:22:35.238Z,100.00
2022-12-06T01:23:38.506Z,100.00
2022-12-06T01:24:41.692Z,100.00
2022-12-06T01:25:52.254Z,100.00
2022-12-06T01:26:55.504Z,100.00
2022-12-06T01:27:58.547Z,100.00
2022-12-06T01:29:02.837Z,100.00
2022-12-06T01:30:06.770Z,100.00
2022-12-06T01:31:09.732Z,100.00
2022-12-06T01:32:12.840Z,100.00
2022-12-06T01:33:15.801Z,100.00
2022-12-06T01:34:18.685Z,100.00
2022-12-06T01:35:21.703Z,100.00
2022-12-06T01:36:26.662Z,100.00
2022-12-06T01:37:29.830Z,99.89
2022-12-06T01:38:33.160Z,100.00
2022-12-06T01:39:36.150Z,100.00
2022-12-06T01:40:41.079Z,100.00
2022-12-06T01:41:44.435Z,99.90
2022-12-06T01:42:47.320Z,99.82
2022-12-06T01:43:51.613Z,99.93
2022-12-06T01:44:56.590Z,99.79
2022-12-06T01:46:06.078Z,99.73
2022-12-06T01:47:19.186Z,100.00
2022-12-06T01:48:25.596Z,100.00
2022-12-06T01:49:35.351Z,100.00
2022-12-06T01:50:40.455Z,100.00
2022-12-06T01:51:55.504Z,100.00
2022-12-06T01:53:09.005Z,100.00
2022-12-06T01:54:15.306Z,100.00
2022-12-06T01:55:21.532Z,100.00
2022-12-06T01:56:24.743Z,100.00
2022-12-06T01:57:28.344Z,100.00
2022-12-06T01:58:37.213Z,100.00
2022-12-06T01:59:40.736Z,100.00
2022-12-06T02:00:44.216Z,100.00
2022-12-06T02:01:48.025Z,100.00
2022-12-06T02:02:51.407Z,100.00
2022-12-06T02:03:56.967Z,100.00
2022-12-06T02:05:02.085Z,100.00
2022-12-06T02:06:08.773Z,100.00
2022-12-06T02:07:12.856Z,100.00
2022-12-06T02:08:17.292Z,100.00
2022-12-06T02:09:21.458Z,100.00
2022-12-06T02:10:24.476Z,100.00
2022-12-06T02:11:30.772Z,100.00
2022-12-06T02:12:37.990Z,100.00
2022-12-06T02:13:41.795Z,100.00
2022-12-06T02:14:49.748Z,100.00
2022-12-06T02:15:58.814Z,100.00
2022-12-06T02:17:21.256Z,100.00
2022-12-06T02:18:35.457Z,100.00
2022-12-06T02:19:56.944Z,100.00
2022-12-06T02:21:13.375Z,100.00
2022-12-06T02:22:21.909Z,100.00
2022-12-06T02:23:36.882Z,100.00
2022-12-06T02:24:52.509Z,100.00
2022-12-06T02:26:29.181Z,100.00
2022-12-06T02:27:53.935Z,100.00
2022-12-06T02:29:21.653Z,100.00
2022-12-06T02:30:40.569Z,100.00
2022-12-06T02:31:52.294Z,100.00
2022-12-06T02:33:01.862Z,100.00
2022-12-06T02:34:18.873Z,100.00
2022-12-06T02:35:31.458Z,100.00
2022-12-06T02:37:15.418Z,100.00
2022-12-06T02:38:31.256Z,100.00
2022-12-06T02:39:41.475Z,100.00
2022-12-06T02:40:50.719Z,100.00
2022-12-06T02:42:20.817Z,100.00
2022-12-06T02:43:32.595Z,100.00
2022-12-06T02:44:44.757Z,100.00
2022-12-06T02:45:55.313Z,100.00
2022-12-06T02:47:01.409Z,100.00
2022-12-06T02:48:06.524Z,100.00
2022-12-06T02:49:12.942Z,100.00
2022-12-06T02:50:23.158Z,100.00
2022-12-06T02:51:28.315Z,100.00
2022-12-06T02:52:32.576Z,100.00
2022-12-06T02:53:39.578Z,100.00
2022-12-06T02:54:45.863Z,100.00
2022-12-06T02:55:51.702Z,100.00
2022-12-06T02:56:54.707Z,100.00
2022-12-06T02:57:58.175Z,100.00
2022-12-06T02:59:01.925Z,100.00
2022-12-06T03:00:31.077Z,100.00
2022-12-06T03:01:41.943Z,100.00
2022-12-06T03:02:45.244Z,100.00
2022-12-06T03:03:56.960Z,100.00
2022-12-06T03:05:13.377Z,100.00
2022-12-06T03:06:43.963Z,100.00
2022-12-06T03:07:53.406Z,100.00
2022-12-06T03:09:23.273Z,100.00
2022-12-06T03:10:49.556Z,99.65
2022-12-06T03:11:57.425Z,99.90
2022-12-06T03:13:21.941Z,100.00
2022-12-06T03:14:27.779Z,100.00
2022-12-06T03:15:55.689Z,99.61
2022-12-06T03:17:30.773Z,99.37
2022-12-06T03:19:12.712Z,99.60
2022-12-06T03:20:43.172Z,99.72
2022-12-06T03:22:09.540Z,99.97
2022-12-06T03:23:19.061Z,99.83
2022-12-06T03:24:24.439Z,99.90
2022-12-06T03:25:28.481Z,99.91
2022-12-06T03:26:34.472Z,100.00
2022-12-06T03:27:41.301Z,100.00
2022-12-06T03:28:47.456Z,100.00
2022-12-06T03:29:55.696Z,100.00
2022-12-06T03:31:03.429Z,100.00
2022-12-06T03:32:08.430Z,100.00
2022-12-06T03:33:16.048Z,100.00
2022-12-06T03:34:30.464Z,100.00
2022-12-06T03:35:35.162Z,100.00
2022-12-06T03:36:40.584Z,100.00
2022-12-06T03:37:48.313Z,100.00
2022-12-06T03:39:11.226Z,100.00
2022-12-06T03:40:26.864Z,100.00
2022-12-06T03:41:34.956Z,100.00
2022-12-06T03:42:38.153Z,100.00
2022-12-06T03:43:40.865Z,100.00
2022-12-06T03:44:43.513Z,100.00
2022-12-06T03:46:15.287Z,100.00
2022-12-06T03:47:29.440Z,100.00
2022-12-06T03:48:38.793Z,100.00
2022-12-06T03:49:46.525Z,100.00
2022-12-06T03:51:11.912Z,100.00
2022-12-06T03:52:14.736Z,100.00
2022-12-06T03:53:18.950Z,100.00
2022-12-06T03:54:21.804Z,100.00
2022-12-06T03:55:24.572Z,100.00
2022-12-06T03:56:27.817Z,100.00
2022-12-06T03:57:30.423Z,100.00
2022-12-06T03:58:33.102Z,100.00
2022-12-06T03:59:35.974Z,100.00
2022-12-06T04:00:39.299Z,100.00
2022-12-06T04:01:41.992Z,100.00
2022-12-06T04:02:44.971Z,100.00
2022-12-06T04:03:48.834Z,100.00
2022-12-06T04:04:51.468Z,100.00
2022-12-06T04:05:54.084Z,100.00
2022-12-06T04:06:56.766Z,100.00
2022-12-06T04:07:59.507Z,100.00
2022-12-06T04:09:20.698Z,100.00
2022-12-06T04:10:25.217Z,100.00
2022-12-06T04:11:27.694Z,100.00
2022-12-06T04:12:51.222Z,100.00
2022-12-06T04:13:53.810Z,100.00
2022-12-06T04:14:56.416Z,100.00
2022-12-06T04:16:01.349Z,100.00
2022-12-06T04:17:23.017Z,100.00
2022-12-06T04:18:28.297Z,100.00
2022-12-06T04:19:31.012Z,100.00
2022-12-06T04:20:54.011Z,100.00
2022-12-06T04:22:15.290Z,100.00
2022-12-06T04:23:19.177Z,100.00
2022-12-06T04:24:21.812Z,100.00
2022-12-06T04:25:24.616Z,100.00
2022-12-06T04:26:31.250Z,100.00
2022-12-06T04:27:52.700Z,100.00
2022-12-06T04:29:13.861Z,100.00
2022-12-06T04:30:35.127Z,100.00
2022-12-06T04:31:57.898Z,100.00
2022-12-06T04:33:18.890Z,100.00
2022-12-06T04:34:40.579Z,100.00
2022-12-06T04:36:01.663Z,100.00
2022-12-06T04:37:24.049Z,100.00
2022-12-06T04:38:45.097Z,100.00
2022-12-06T04:39:47.938Z,100.00
2022-12-06T04:40:50.530Z,100.00
2022-12-06T04:42:11.813Z,100.00
2022-12-06T04:43:33.090Z,100.00
2022-12-06T04:44:35.969Z,100.00
2022-12-06T04:45:38.650Z,100.00
2022-12-06T04:46:41.601Z,100.00
2022-12-06T04:47:44.531Z,100.00
2022-12-06T04:48:47.253Z,100.00
2022-12-06T04:49:50.130Z,100.00
2022-12-06T04:50:52.821Z,100.00
2022-12-06T04:51:55.849Z,100.00
2022-12-06T04:52:58.414Z,100.00
2022-12-06T04:54:04.291Z,100.00
2022-12-06T04:55:11.143Z,100.00
2022-12-06T04:56:13.929Z,100.00
2022-12-06T04:57:17.415Z,100.00
2022-12-06T04:58:20.292Z,100.00
2022-12-06T04:59:24.256Z,100.00
2022-12-06T05:00:26.916Z,100.00
2022-12-06T05:01:30.291Z,100.00
2022-12-06T05:02:32.901Z,100.00
2022-12-06T05:03:43.912Z,100.00
2022-12-06T05:04:47.145Z,100.00
2022-12-06T05:05:49.936Z,100.00
2022-12-06T05:06:52.707Z,100.00
2022-12-06T05:07:55.522Z,100.00
2022-12-06T05:08:59.231Z,100.00
2022-12-06T05:10:02.679Z,100.00
2022-12-06T05:11:06.319Z,100.00
2022-12-06T05:12:09.068Z,100.00
2022-12-06T05:13:11.671Z,100.00
2022-12-06T05:14:18.077Z,100.00
2022-12-06T05:15:20.777Z,100.00
2022-12-06T05:16:24.395Z,100.00
2022-12-06T05:17:27.163Z,100.00
2022-12-06T05:18:30.897Z,100.00
2022-12-06T05:19:33.707Z,100.00
2022-12-06T05:20:37.246Z,100.00
2022-12-06T05:21:40.336Z,100.00
2022-12-06T05:22:43.143Z,100.00
2022-12-06T05:23:46.364Z,100.00
2022-12-06T05:24:48.840Z,100.00
2022-12-06T05:25:51.455Z,100.00
2022-12-06T05:26:54.272Z,100.00
2022-12-06T05:27:57.293Z,100.00
2022-12-06T05:29:00.020Z,100.00
2022-12-06T05:30:02.783Z,100.00
2022-12-06T05:31:06.009Z,100.00
2022-12-06T05:32:08.735Z,100.00
2022-12-06T05:33:11.405Z,100.00
2022-12-06T05:34:16.327Z,100.00
2022-12-06T05:35:18.921Z,100.00
2022-12-06T05:36:24.594Z,100.00
2022-12-06T05:37:27.208Z,100.00
2022-12-06T05:38:32.625Z,100.00
2022-12-06T05:39:35.451Z,100.00
2022-12-06T05:40:40.975Z,100.00
2022-12-06T05:41:43.723Z,100.00
2022-12-06T05:42:46.336Z,100.00
2022-12-06T05:43:49.471Z,100.00
2022-12-06T05:44:52.093Z,100.00
2022-12-06T05:45:54.967Z,100.00
2022-12-06T05:46:57.604Z,100.00
2022-12-06T05:48:00.344Z,100.00
2022-12-06T05:49:03.616Z,100.00
2022-12-06T05:50:06.682Z,100.00
2022-12-06T05:51:09.192Z,100.00
2022-12-06T05:52:12.089Z,100.00
2022-12-06T05:53:15.105Z,100.00
2022-12-06T05:54:18.892Z,100.00
2022-12-06T05:55:21.808Z,100.00
2022-12-06T05:56:24.591Z,100.00
2022-12-06T05:57:31.282Z,100.00
2022-12-06T05:58:35.031Z,100.00
2022-12-06T05:59:37.751Z,100.00
2022-12-06T06:00:40.456Z,100.00
2022-12-06T06:01:43.268Z,100.00
2022-12-06T06:02:46.441Z,100.00
2022-12-06T06:03:49.332Z,100.00
2022-12-06T06:04:57.131Z,100.00
2022-12-06T06:06:01.019Z,100.00
2022-12-06T06:07:07.124Z,100.00
2022-12-06T06:08:10.033Z,100.00
2022-12-06T06:09:12.754Z,100.00
2022-12-06T06:10:16.442Z,100.00
2022-12-06T06:11:19.144Z,100.00
2022-12-06T06:12:22.193Z,100.00
2022-12-06T06:13:25.601Z,100.00
2022-12-06T06:14:28.466Z,100.00
2022-12-06T06:15:31.408Z,100.00
2022-12-06T06:16:34.456Z,100.00
2022-12-06T06:17:41.459Z,100.00
2022-12-06T06:18:44.144Z,100.00
2022-12-06T06:19:51.290Z,100.00
2022-12-06T06:20:59.578Z,100.00
2022-12-06T06:22:02.200Z,100.00
2022-12-06T06:23:04.829Z,100.00
2022-12-06T06:24:07.637Z,100.00
2022-12-06T06:25:10.819Z,100.00
2022-12-06T06:26:17.222Z,100.00
2022-12-06T06:27:20.009Z,100.00
2022-12-06T06:28:22.911Z,100.00
2022-12-06T06:29:25.674Z,100.00
2022-12-06T06:30:28.739Z,100.00
2022-12-06T06:31:31.664Z,100.00
2022-12-06T06:32:34.445Z,100.00
2022-12-06T06:33:37.072Z,100.00
2022-12-06T06:34:39.663Z,100.00
2022-12-06T06:35:43.277Z,100.00
2022-12-06T06:36:46.264Z,100.00
2022-12-06T06:37:52.307Z,100.00
2022-12-06T06:38:55.226Z,100.00
2022-12-06T06:39:58.193Z,100.00
2022-12-06T06:41:05.697Z,100.00
2022-12-06T06:42:08.359Z,100.00
2022-12-06T06:43:20.734Z,100.00
2022-12-06T06:44:23.519Z,100.00
2022-12-06T06:45:28.993Z,100.00
2022-12-06T06:46:32.547Z,100.00
2022-12-06T06:47:35.241Z,100.00
2022-12-06T06:48:39.528Z,100.00
2022-12-06T06:49:42.346Z,100.00
2022-12-06T06:50:45.066Z,100.00
2022-12-06T06:51:47.921Z,100.00
2022-12-06T06:52:50.626Z,100.00
2022-12-06T06:53:53.280Z,100.00
2022-12-06T06:54:56.141Z,100.00
2022-12-06T06:55:58.777Z,100.00
2022-12-06T06:57:03.155Z,100.00
2022-12-06T06:58:06.351Z,100.00
2022-12-06T06:59:08.975Z,100.00
2022-12-06T07:00:12.684Z,100.00
2022-12-06T07:01:18.868Z,100.00
2022-12-06T07:02:25.259Z,100.00
2022-12-06T07:03:29.227Z,100.00
2022-12-06T07:04:33.869Z,100.00
2022-12-06T07:05:36.453Z,100.00
2022-12-06T07:06:39.172Z,100.00
2022-12-06T07:07:41.725Z,100.00
2022-12-06T07:08:45.250Z,100.00
2022-12-06T07:09:48.387Z,100.00
2022-12-06T07:10:51.795Z,100.00
2022-12-06T07:11:54.629Z,100.00
2022-12-06T07:12:57.365Z,100.00
2022-12-06T07:14:00.963Z,100.00
2022-12-06T07:15:04.372Z,100.00
2022-12-06T07:16:09.103Z,100.00
2022-12-06T07:17:11.944Z,100.00
2022-12-06T07:18:17.211Z,100.00
2022-12-06T07:19:20.460Z,100.00
2022-12-06T07:20:23.073Z,100.00
2022-12-06T07:21:25.890Z,100.00
2022-12-06T07:22:30.167Z,100.00
2022-12-06T07:23:35.506Z,100.00
2022-12-06T07:24:42.164Z,100.00
2022-12-06T07:25:46.405Z,100.00
2022-12-06T07:26:49.839Z,100.00
2022-12-06T07:27:52.500Z,100.00
2022-12-06T07:28:56.803Z,100.00
2022-12-06T07:29:59.876Z,100.00
2022-12-06T07:31:21.755Z,100.00
2022-12-06T07:32:26.641Z,100.00
2022-12-06T07:33:29.393Z,100.00
2022-12-06T07:34:32.053Z,100.00
2022-12-06T07:36:10.374Z,100.00
2022-12-06T07:36:57.387Z,100.00
2022-12-06T07:38:01.938Z,100.00
2022-12-06T07:39:07.855Z,100.00
2022-12-06T07:40:16.778Z,100.00
2022-12-06T07:41:44.520Z,100.00
2022-12-06T07:43:06.547Z,100.00
2022-12-06T07:44:29.593Z,100.00
2022-12-06T07:45:36.254Z,100.00
2022-12-06T07:46:42.178Z,100.00
2022-12-06T07:47:45.371Z,100.00
2022-12-06T07:48:48.026Z,100.00
2022-12-06T07:49:54.012Z,100.00
2022-12-06T07:50:56.745Z,100.00
2022-12-06T07:51:59.731Z,100.00
2022-12-06T07:53:02.491Z,100.00
2022-12-06T07:54:05.702Z,100.00
2022-12-06T07:55:14.324Z,100.00
2022-12-06T07:56:17.030Z,100.00
2022-12-06T07:57:22.002Z,100.00
2022-12-06T07:58:24.557Z,100.00
2022-12-06T07:59:27.515Z,100.00
2022-12-06T08:00:31.009Z,100.00
2022-12-06T08:01:33.662Z,100.00
2022-12-06T08:02:36.273Z,100.00
2022-12-06T08:03:38.829Z,100.00
2022-12-06T08:04:41.901Z,100.00
2022-12-06T08:05:53.924Z,100.00
2022-12-06T08:06:57.869Z,100.00
2022-12-06T08:08:00.831Z,100.00
2022-12-06T08:09:04.076Z,100.00
2022-12-06T08:10:07.743Z,100.00
2022-12-06T08:11:14.151Z,100.00
2022-12-06T08:12:16.845Z,100.00
2022-12-06T08:13:23.166Z,100.00
2022-12-06T08:14:26.171Z,100.00
2022-12-06T08:15:28.785Z,100.00
2022-12-06T08:16:31.532Z,100.00
2022-12-06T08:17:40.644Z,100.00
2022-12-06T08:18:43.799Z,100.00
2022-12-06T08:19:47.168Z,100.00
2022-12-06T08:20:50.602Z,100.00
2022-12-06T08:21:53.416Z,100.00
2022-12-06T08:22:56.216Z,100.00
2022-12-06T08:23:59.066Z,100.00
2022-12-06T08:25:01.965Z,100.00
2022-12-06T08:26:08.294Z,100.00
2022-12-06T08:27:11.012Z,100.00
2022-12-06T08:28:13.995Z,100.00
2022-12-06T08:29:17.101Z,100.00
2022-12-06T08:30:20.031Z,100.00
2022-12-06T08:31:24.521Z,100.00
2022-12-06T08:32:27.413Z,100.00
2022-12-06T08:33:32.570Z,100.00
2022-12-06T08:34:35.304Z,100.00
2022-12-06T08:35:37.921Z,100.00
2022-12-06T08:36:41.361Z,100.00
2022-12-06T08:37:44.125Z,100.00
2022-12-06T08:38:47.880Z,100.00
2022-12-06T08:39:50.670Z,100.00
2022-12-06T08:40:53.449Z,100.00
2022-12-06T08:41:56.309Z,100.00
2022-12-06T08:42:59.092Z,100.00
2022-12-06T08:44:02.695Z,100.00
2022-12-06T08:45:06.081Z,100.00
2022-12-06T08:46:08.821Z,100.00
2022-12-06T08:47:11.573Z,100.00
2022-12-06T08:48:14.381Z,100.00
2022-12-06T08:49:17.783Z,100.00
2022-12-06T08:50:21.575Z,100.00
2022-12-06T08:51:24.717Z,100.00
2022-12-06T08:52:27.456Z,100.00
2022-12-06T08:53:30.204Z,100.00
2022-12-06T08:54:34.789Z,100.00
2022-12-06T08:55:37.430Z,100.00
2022-12-06T08:56:40.101Z,100.00
2022-12-06T08:57:42.843Z,100.00
2022-12-06T08:58:45.587Z,100.00
2022-12-06T08:59:48.344Z,100.00
2022-12-06T09:00:50.964Z,100.00
2022-12-06T09:01:53.848Z,100.00
2022-12-06T09:02:56.683Z,100.00
2022-12-06T09:04:00.472Z,100.00
2022-12-06T09:05:03.307Z,100.00
2022-12-06T09:06:06.613Z,100.00
2022-12-06T09:07:11.827Z,100.00
2022-12-06T09:08:14.963Z,100.00
2022-12-06T09:09:18.488Z,99.93
2022-12-06T09:10:21.273Z,99.78
2022-12-06T09:11:24.511Z,99.56
2022-12-06T09:12:27.236Z,99.42
2022-12-06T09:13:30.025Z,99.28
2022-12-06T09:14:32.700Z,99.24
2022-12-06T09:15:35.425Z,99.17
2022-12-06T09:16:38.248Z,98.98
2022-12-06T09:17:40.842Z,98.27
2022-12-06T09:18:44.953Z,98.21
2022-12-06T09:19:48.025Z,98.30
2022-12-06T09:20:50.986Z,97.89
2022-12-06T09:21:53.808Z,97.42
2022-12-06T09:22:57.889Z,97.26
2022-12-06T09:24:00.788Z,97.09
2022-12-06T09:25:03.646Z,97.03
2022-12-06T09:26:07.410Z,96.72
2022-12-06T09:27:10.275Z,96.70
2022-12-06T09:28:13.765Z,96.77
2022-12-06T09:29:17.750Z,96.63
2022-12-06T09:30:20.802Z,96.85
2022-12-06T09:31:24.494Z,96.97
2022-12-06T09:32:27.364Z,96.89
2022-12-06T09:33:30.117Z,96.33
2022-12-06T09:34:32.767Z,95.25
2022-12-06T09:35:36.115Z,93.72
2022-12-06T09:36:52.777Z,92.62
2022-12-06T09:37:55.904Z,92.14
2022-12-06T09:39:06.891Z,92.54
2022-12-06T09:40:20.602Z,93.20
2022-12-06T09:41:26.327Z,93.50
2022-12-06T09:43:08.763Z,93.51
2022-12-06T09:44:26.852Z,94.00
2022-12-06T09:45:46.790Z,93.78
2022-12-06T09:47:28.538Z,93.77
2022-12-06T09:48:44.275Z,93.66
2022-12-06T09:50:24.558Z,94.00
2022-12-06T09:51:54.631Z,92.50
2022-12-06T09:53:18.421Z,92.89
2022-12-06T09:54:39.166Z,92.99
2022-12-06T09:55:47.952Z,91.42
2022-12-06T09:57:08.605Z,91.77
2022-12-06T09:58:23.376Z,91.93
2022-12-06T09:59:55.221Z,92.81
2022-12-06T10:01:25.682Z,92.42
2022-12-06T10:02:34.423Z,93.02
2022-12-06T10:03:43.132Z,93.58
2022-12-06T10:04:51.251Z,93.23
2022-12-06T10:06:07.494Z,92.92
2022-12-06T10:07:27.701Z,91.16
2022-12-06T10:08:42.589Z,90.35
2022-12-06T10:10:10.993Z,88.42
2022-12-06T10:11:33.444Z,89.17
2022-12-06T10:12:38.996Z,87.83
2022-12-06T10:13:53.895Z,88.32
2022-12-06T10:15:14.212Z,89.07
2022-12-06T10:16:45.126Z,89.15
2022-12-06T10:18:15.228Z,88.00
2022-12-06T10:19:54.805Z,88.38
2022-12-06T10:21:09.503Z,89.65
2022-12-06T10:22:30.364Z,91.23
2022-12-06T10:23:58.692Z,91.57
2022-12-06T10:25:23.951Z,91.62
2022-12-06T10:26:50.737Z,91.61
2022-12-06T10:28:34.019Z,91.78
2022-12-06T10:30:04.622Z,89.79
2022-12-06T10:31:43.704Z,89.35
2022-12-06T10:33:13.983Z,87.73
2022-12-06T10:35:08.850Z,87.62
2022-12-06T10:36:16.752Z,88.04
2022-12-06T10:37:44.140Z,87.78
2022-12-06T10:38:57.345Z,87.29
2022-12-06T10:40:22.274Z,87.77
2022-12-06T10:41:34.424Z,87.95
2022-12-06T10:42:43.151Z,88.46
2022-12-06T10:44:04.626Z,88.08
2022-12-06T10:45:47.270Z,88.55
2022-12-06T10:47:13.159Z,88.82
2022-12-06T10:48:24.713Z,87.70
2022-12-06T10:49:33.765Z,84.62
2022-12-06T10:50:41.574Z,83.41
2022-12-06T10:51:53.993Z,82.63
2022-12-06T10:53:04.613Z,82.92
2022-12-06T10:54:22.378Z,82.08
2022-12-06T10:55:44.455Z,82.88
2022-12-06T10:56:50.125Z,84.77
2022-12-06T10:58:06.882Z,85.91
2022-12-06T10:59:27.764Z,86.46
2022-12-06T11:00:37.980Z,87.11
2022-12-06T11:01:43.781Z,87.37
2022-12-06T11:03:19.755Z,87.88
2022-12-06T11:04:49.144Z,86.29
2022-12-06T11:06:01.756Z,86.70
2022-12-06T11:07:20.046Z,87.01
2022-12-06T11:08:27.986Z,87.39
2022-12-06T11:09:39.023Z,87.53
2022-12-06T11:10:46.001Z,87.55
2022-12-06T11:11:50.283Z,87.57
2022-12-06T11:13:10.097Z,87.19
2022-12-06T11:14:27.158Z,85.90
2022-12-06T11:15:39.058Z,84.78
2022-12-06T11:16:55.388Z,84.66
2022-12-06T11:18:27.782Z,85.03
2022-12-06T11:19:34.272Z,86.19
2022-12-06T11:21:02.389Z,85.60
2022-12-06T11:22:34.452Z,85.05
2022-12-06T11:24:06.913Z,86.27
2022-12-06T11:25:09.491Z,86.83
2022-12-06T11:26:36.020Z,86.51
2022-12-06T11:27:47.813Z,86.09
2022-12-06T11:29:00.295Z,85.36
2022-12-06T11:30:19.852Z,86.08
2022-12-06T11:31:38.124Z,86.49
2022-12-06T11:32:41.874Z,85.26
2022-12-06T11:33:46.564Z,85.24
2022-12-06T11:34:56.092Z,84.30
2022-12-06T11:36:02.768Z,84.42
2022-12-06T11:37:07.237Z,84.64
2022-12-06T11:38:12.722Z,84.81
2022-12-06T11:39:16.352Z,85.30
2022-12-06T11:40:33.415Z,84.97
2022-12-06T11:41:37.641Z,85.51
2022-12-06T11:42:40.338Z,83.70
2022-12-06T11:43:43.137Z,83.67
2022-12-06T11:44:57.769Z,84.10
2022-12-06T11:46:02.809Z,84.79
2022-12-06T11:47:07.163Z,82.78
2022-12-06T11:48:21.150Z,82.24
2022-12-06T11:49:40.537Z,81.89
2022-12-06T11:50:44.791Z,79.82
2022-12-06T11:51:47.494Z,80.44
2022-12-06T11:53:05.320Z,81.11
2022-12-06T11:54:34.467Z,81.09
2022-12-06T11:55:42.636Z,82.02
2022-12-06T11:56:46.566Z,82.35
2022-12-06T11:57:59.507Z,82.64
2022-12-06T11:59:28.891Z,83.12
2022-12-06T12:00:32.015Z,83.36
2022-12-06T12:01:46.951Z,82.06
2022-12-06T12:02:52.789Z,82.34
2022-12-06T12:03:55.516Z,81.84
2022-12-06T12:05:14.361Z,81.46
2022-12-06T12:06:21.833Z,83.02
2022-12-06T12:07:25.050Z,82.98
2022-12-06T12:08:32.801Z,83.76
2022-12-06T12:09:47.139Z,84.68
2022-12-06T12:11:01.456Z,85.38
2022-12-06T12:12:19.856Z,85.54
2022-12-06T12:13:42.398Z,85.41
2022-12-06T12:14:51.347Z,84.88
2022-12-06T12:15:54.444Z,85.60
2022-12-06T12:17:01.728Z,86.02
2022-12-06T12:18:06.344Z,86.52
2022-12-06T12:19:27.421Z,84.89
2022-12-06T12:20:45.583Z,84.86
2022-12-06T12:21:54.557Z,84.02
2022-12-06T12:23:18.571Z,84.22
2022-12-06T12:25:17.274Z,83.60
2022-12-06T12:26:08.364Z,83.70
2022-12-06T12:27:46.385Z,82.02
2022-12-06T12:29:22.508Z,82.92
2022-12-06T12:30:37.005Z,82.93
2022-12-06T12:31:55.001Z,82.49
2022-12-06T12:33:10.222Z,81.91
2022-12-06T12:34:18.544Z,82.45
2022-12-06T12:35:21.476Z,82.85
2022-12-06T12:36:29.393Z,82.80
2022-12-06T12:37:32.100Z,83.44
2022-12-06T12:38:43.503Z,83.81
2022-12-06T12:39:51.074Z,83.39
2022-12-06T12:41:03.514Z,83.88
2022-12-06T12:42:33.182Z,83.03
2022-12-06T12:43:36.507Z,83.07
2022-12-06T12:44:40.022Z,83.37
2022-12-06T12:46:04.337Z,83.05
2022-12-06T12:47:19.013Z,84.13
2022-12-06T12:48:25.638Z,83.79
2022-12-06T12:49:34.953Z,84.05
2022-12-06T12:50:37.967Z,83.87
2022-12-06T12:51:46.434Z,82.89
2022-12-06T12:52:52.055Z,83.19
2022-12-06T12:53:58.206Z,82.96
2022-12-06T12:55:14.836Z,83.05
2022-12-06T12:56:21.967Z,83.77
2022-12-06T12:57:24.736Z,84.23
2022-12-06T12:58:31.628Z,83.54
2022-12-06T12:59:40.675Z,83.31
2022-12-06T13:00:48.385Z,82.66
2022-12-06T13:02:00.440Z,82.38
2022-12-06T13:03:49.539Z,82.90
2022-12-06T13:04:42.704Z,83.09
2022-12-06T13:05:49.392Z,82.58
2022-12-06T13:07:03.297Z,82.99
2022-12-06T13:08:15.512Z,82.56
2022-12-06T13:09:53.032Z,83.51
2022-12-06T13:10:59.797Z,83.92
2022-12-06T13:12:11.373Z,84.18
2022-12-06T13:13:36.875Z,84.38
2022-12-06T13:14:48.952Z,82.98
2022-12-06T13:15:54.466Z,83.07
2022-12-06T13:17:01.519Z,83.49
2022-12-06T13:18:25.835Z,83.86
2022-12-06T13:19:48.756Z,84.22
2022-12-06T13:21:01.177Z,84.72
2022-12-06T13:22:06.030Z,84.79
2022-12-06T13:23:14.167Z,85.05
2022-12-06T13:24:27.637Z,83.47
2022-12-06T13:25:30.411Z,83.27
2022-12-06T13:26:38.697Z,83.49
2022-12-06T13:27:46.207Z,83.75
2022-12-06T13:28:54.042Z,83.03
2022-12-06T13:30:22.800Z,82.86
2022-12-06T13:31:31.360Z,83.44
2022-12-06T13:32:42.127Z,83.55
2022-12-06T13:33:51.240Z,81.75
2022-12-06T13:34:59.575Z,81.07
2022-12-06T13:36:07.707Z,81.74
2022-12-06T13:37:44.026Z,82.39
2022-12-06T13:38:47.582Z,82.54
2022-12-06T13:39:53.669Z,82.37
2022-12-06T13:41:46.074Z,82.27
2022-12-06T13:42:49.302Z,83.37
2022-12-06T13:43:52.067Z,82.67
2022-12-06T13:45:00.808Z,81.91
2022-12-06T13:46:09.551Z,82.12
2022-12-06T13:47:27.511Z,81.40
2022-12-06T13:48:47.904Z,82.16
2022-12-06T13:49:50.537Z,81.83
2022-12-06T13:50:56.666Z,81.80
2022-12-06T13:52:00.466Z,81.62
2022-12-06T13:53:03.784Z,81.15
2022-12-06T13:54:06.654Z,80.87
2022-12-06T13:55:24.502Z,80.29
2022-12-06T13:56:30.843Z,81.36
2022-12-06T13:57:33.811Z,82.05
2022-12-06T13:58:42.251Z,82.37
2022-12-06T13:59:45.217Z,82.39
2022-12-06T14:00:48.287Z,82.72
2022-12-06T14:01:53.082Z,81.44
2022-12-06T14:02:59.528Z,80.80
2022-12-06T14:04:04.889Z,80.77
2022-12-06T14:05:46.193Z,81.33
2022-12-06T14:06:48.956Z,82.00
2022-12-06T14:07:58.278Z,81.26
2022-12-06T14:09:02.095Z,81.67
2022-12-06T14:10:13.532Z,81.81
2022-12-06T14:11:18.397Z,81.79
2022-12-06T14:12:25.152Z,82.31
2022-12-06T14:13:27.868Z,82.30
2022-12-06T14:14:30.658Z,82.27
2022-12-06T14:15:36.304Z,82.15
2022-12-06T14:16:42.119Z,82.28
2022-12-06T14:18:04.363Z,82.61
2022-12-06T14:19:23.908Z,82.27
2022-12-06T14:20:30.463Z,81.73
2022-12-06T14:21:39.437Z,81.61
2022-12-06T14:22:49.465Z,81.65
2022-12-06T14:23:52.184Z,81.88
2022-12-06T14:25:01.883Z,82.14
2022-12-06T14:26:11.827Z,82.43
2022-12-06T14:27:21.484Z,82.68
2022-12-06T14:28:24.556Z,82.30
2022-12-06T14:29:27.140Z,81.38